sensor_id;sensor_type;location;lat;lon;timestamp;P1;durP1;ratioP1;P2;durP2;ratioP2
68888;SDS011;55930;47.412;8.790;2023-09-12T00:06:33;13.00;;;10.20;;
68888;SDS011;55930;47.412;8.790;2023-09-12T00:13:13;15.67;;;10.00;;
68888;SDS011;55930;47.412;8.790;2023-09-12T00:19:54;10.93;;;9.80;;
68888;SDS011;55930;47.412;8.790;2023-09-12T00:26:35;11.70;;;10.23;;
68888;SDS011;55930;47.412;8.790;2023-09-12T00:33:15;11.73;;;9.82;;
68888;SDS011;55930;47.412;8.790;2023-09-12T00:36:38;11.25;;;10.15;;
68888;SDS011;55930;47.412;8.790;2023-09-12T00:43:21;11.10;;;9.63;;
68888;SDS011;55930;47.412;8.790;2023-09-12T00:46:42;11.63;;;9.65;;
68888;SDS011;55930;47.412;8.790;2023-09-12T00:50:04;12.23;;;10.23;;
68888;SDS011;55930;47.412;8.790;2023-09-12T00:53:26;11.27;;;10.18;;
68888;SDS011;55930;47.412;8.790;2023-09-12T01:00:09;11.43;;;10.23;;
68888;SDS011;55930;47.412;8.790;2023-09-12T01:03:32;10.40;;;9.30;;
68888;SDS011;55930;47.412;8.790;2023-09-12T01:06:53;11.25;;;9.88;;
68888;SDS011;55930;47.412;8.790;2023-09-12T01:10:18;11.48;;;10.25;;
68888;SDS011;55930;47.412;8.790;2023-09-12T01:13:39;11.73;;;9.70;;
68888;SDS011;55930;47.412;8.790;2023-09-12T01:17:01;11.43;;;9.75;;
68888;SDS011;55930;47.412;8.790;2023-09-12T01:27:18;10.95;;;9.85;;
68888;SDS011;55930;47.412;8.790;2023-09-12T01:30:39;12.27;;;11.07;;
68888;SDS011;55930;47.412;8.790;2023-09-12T01:34:09;10.80;;;9.80;;
68888;SDS011;55930;47.412;8.790;2023-09-12T01:37:31;11.32;;;10.23;;
68888;SDS011;55930;47.412;8.790;2023-09-12T01:44:12;11.77;;;10.27;;
68888;SDS011;55930;47.412;8.790;2023-09-12T01:47:37;11.57;;;10.38;;
68888;SDS011;55930;47.412;8.790;2023-09-12T01:51:03;16.02;;;11.10;;
68888;SDS011;55930;47.412;8.790;2023-09-12T01:54:25;13.45;;;10.68;;
68888;SDS011;55930;47.412;8.790;2023-09-12T01:57:46;11.27;;;9.98;;
68888;SDS011;55930;47.412;8.790;2023-09-12T02:01:07;11.55;;;10.45;;
68888;SDS011;55930;47.412;8.790;2023-09-12T02:07:50;11.40;;;10.07;;
68888;SDS011;55930;47.412;8.790;2023-09-12T02:14:31;11.37;;;10.27;;
68888;SDS011;55930;47.412;8.790;2023-09-12T02:21:12;14.73;;;10.57;;
68888;SDS011;55930;47.412;8.790;2023-09-12T02:31:14;11.13;;;10.03;;
68888;SDS011;55930;47.412;8.790;2023-09-12T02:37:55;12.30;;;10.35;;
68888;SDS011;55930;47.412;8.790;2023-09-12T02:44:36;16.98;;;10.60;;
68888;SDS011;55930;47.412;8.790;2023-09-12T02:51:19;12.15;;;10.43;;
68888;SDS011;55930;47.412;8.790;2023-09-12T02:57:59;12.47;;;10.13;;
68888;SDS011;55930;47.412;8.790;2023-09-12T03:01:20;11.50;;;10.40;;
68888;SDS011;55930;47.412;8.790;2023-09-12T03:04:41;12.23;;;10.45;;
68888;SDS011;55930;47.412;8.790;2023-09-12T03:11:25;11.60;;;10.30;;
68888;SDS011;55930;47.412;8.790;2023-09-12T03:14:47;14.20;;;10.73;;
68888;SDS011;55930;47.412;8.790;2023-09-12T03:18:10;13.50;;;10.23;;
68888;SDS011;55930;47.412;8.790;2023-09-12T03:24:51;13.30;;;10.27;;
68888;SDS011;55930;47.412;8.790;2023-09-12T03:31:32;11.30;;;10.10;;
68888;SDS011;55930;47.412;8.790;2023-09-12T03:38:12;11.30;;;10.18;;
68888;SDS011;55930;47.412;8.790;2023-09-12T03:44:54;11.37;;;10.23;;
68888;SDS011;55930;47.412;8.790;2023-09-12T03:48:17;10.65;;;9.65;;
68888;SDS011;55930;47.412;8.790;2023-09-12T03:54:58;14.57;;;10.33;;
68888;SDS011;55930;47.412;8.790;2023-09-12T03:58:20;11.55;;;10.27;;
68888;SDS011;55930;47.412;8.790;2023-09-12T04:05:02;11.07;;;9.50;;
68888;SDS011;55930;47.412;8.790;2023-09-12T04:08:22;10.90;;;9.73;;
68888;SDS011;55930;47.412;8.790;2023-09-12T04:11:43;12.85;;;9.90;;
68888;SDS011;55930;47.412;8.790;2023-09-12T04:15:03;11.98;;;9.27;;
68888;SDS011;55930;47.412;8.790;2023-09-12T04:21:44;12.47;;;9.07;;
68888;SDS011;55930;47.412;8.790;2023-09-12T04:28:25;11.40;;;9.27;;
68888;SDS011;55930;47.412;8.790;2023-09-12T04:31:49;10.40;;;9.35;;
68888;SDS011;55930;47.412;8.790;2023-09-12T04:35:10;9.85;;;8.75;;
68888;SDS011;55930;47.412;8.790;2023-09-12T04:38:31;9.98;;;8.98;;
68888;SDS011;55930;47.412;8.790;2023-09-12T04:41:53;10.13;;;9.13;;
68888;SDS011;55930;47.412;8.790;2023-09-12T04:48:33;12.88;;;9.98;;
68888;SDS011;55930;47.412;8.790;2023-09-12T04:55:14;9.97;;;9.07;;
68888;SDS011;55930;47.412;8.790;2023-09-12T04:58:37;11.32;;;8.65;;
68888;SDS011;55930;47.412;8.790;2023-09-12T05:01:57;10.60;;;9.55;;
68888;SDS011;55930;47.412;8.790;2023-09-12T05:05:17;10.02;;;9.10;;
68888;SDS011;55930;47.412;8.790;2023-09-12T05:11:58;11.00;;;9.88;;
68888;SDS011;55930;47.412;8.790;2023-09-12T05:18:41;10.33;;;9.27;;
68888;SDS011;55930;47.412;8.790;2023-09-12T05:22:01;11.32;;;9.70;;
68888;SDS011;55930;47.412;8.790;2023-09-12T05:25:22;15.05;;;9.27;;
68888;SDS011;55930;47.412;8.790;2023-09-12T05:32:03;11.00;;;9.82;;
68888;SDS011;55930;47.412;8.790;2023-09-12T05:35:24;11.02;;;9.90;;
68888;SDS011;55930;47.412;8.790;2023-09-12T05:42:05;11.43;;;9.97;;
68888;SDS011;55930;47.412;8.790;2023-09-12T05:45:25;13.75;;;10.88;;
68888;SDS011;55930;47.412;8.790;2023-09-12T05:48:49;13.43;;;10.90;;
68888;SDS011;55930;47.412;8.790;2023-09-12T05:55:32;12.23;;;10.07;;
68888;SDS011;55930;47.412;8.790;2023-09-12T05:58:56;14.40;;;10.43;;
68888;SDS011;55930;47.412;8.790;2023-09-12T06:02:18;12.23;;;10.70;;
68888;SDS011;55930;47.412;8.790;2023-09-12T06:08:59;15.70;;;10.43;;
68888;SDS011;55930;47.412;8.790;2023-09-12T06:15:43;12.02;;;10.45;;
68888;SDS011;55930;47.412;8.790;2023-09-12T06:22:23;13.63;;;9.23;;
68888;SDS011;55930;47.412;8.790;2023-09-12T06:29:04;10.37;;;8.70;;
68888;SDS011;55930;47.412;8.790;2023-09-12T06:32:25;12.75;;;9.65;;
68888;SDS011;55930;47.412;8.790;2023-09-12T06:39:10;14.15;;;9.35;;
68888;SDS011;55930;47.412;8.790;2023-09-12T06:45:51;11.40;;;9.20;;
68888;SDS011;55930;47.412;8.790;2023-09-12T06:49:13;10.80;;;9.02;;
68888;SDS011;55930;47.412;8.790;2023-09-12T06:52:34;12.48;;;10.00;;
68888;SDS011;55930;47.412;8.790;2023-09-12T06:55:54;8.90;;;8.00;;
68888;SDS011;55930;47.412;8.790;2023-09-12T06:59:17;12.60;;;8.48;;
68888;SDS011;55930;47.412;8.790;2023-09-12T07:02:38;8.95;;;7.35;;
68888;SDS011;55930;47.412;8.790;2023-09-12T07:06:01;10.13;;;7.50;;
68888;SDS011;55930;47.412;8.790;2023-09-12T07:09:23;10.13;;;8.18;;
68888;SDS011;55930;47.412;8.790;2023-09-12T07:12:43;11.57;;;8.57;;
68888;SDS011;55930;47.412;8.790;2023-09-12T07:16:04;10.27;;;8.35;;
68888;SDS011;55930;47.412;8.790;2023-09-12T07:19:25;11.13;;;9.43;;
68888;SDS011;55930;47.412;8.790;2023-09-12T07:22:46;10.23;;;9.23;;
68888;SDS011;55930;47.412;8.790;2023-09-12T07:26:11;18.35;;;15.50;;
68888;SDS011;55930;47.412;8.790;2023-09-12T07:29:33;25.95;;;20.83;;
68888;SDS011;55930;47.412;8.790;2023-09-12T07:32:53;20.80;;;15.82;;
68888;SDS011;55930;47.412;8.790;2023-09-12T07:36:16;18.88;;;13.02;;
68888;SDS011;55930;47.412;8.790;2023-09-12T07:39:39;17.15;;;13.02;;
68888;SDS011;55930;47.412;8.790;2023-09-12T07:42:59;13.43;;;10.27;;
68888;SDS011;55930;47.412;8.790;2023-09-12T07:46:22;11.75;;;9.27;;
68888;SDS011;55930;47.412;8.790;2023-09-12T07:49:43;10.88;;;9.70;;
68888;SDS011;55930;47.412;8.790;2023-09-12T07:53:03;9.73;;;8.70;;
68888;SDS011;55930;47.412;8.790;2023-09-12T07:56:27;9.32;;;7.22;;
68888;SDS011;55930;47.412;8.790;2023-09-12T07:59:47;11.32;;;8.27;;
68888;SDS011;55930;47.412;8.790;2023-09-12T08:03:08;9.75;;;8.75;;
68888;SDS011;55930;47.412;8.790;2023-09-12T08:06:28;10.98;;;8.07;;
68888;SDS011;55930;47.412;8.790;2023-09-12T08:13:12;8.30;;;7.38;;
68888;SDS011;55930;47.412;8.790;2023-09-12T08:16:32;8.48;;;7.30;;
68888;SDS011;55930;47.412;8.790;2023-09-12T08:19:52;12.77;;;6.75;;
68888;SDS011;55930;47.412;8.790;2023-09-12T08:23:13;10.43;;;7.72;;
68888;SDS011;55930;47.412;8.790;2023-09-12T08:26:33;11.55;;;6.65;;
68888;SDS011;55930;47.412;8.790;2023-09-12T08:29:56;8.23;;;6.38;;
68888;SDS011;55930;47.412;8.790;2023-09-12T08:33:16;6.85;;;6.15;;
68888;SDS011;55930;47.412;8.790;2023-09-12T08:36:36;6.78;;;6.07;;
68888;SDS011;55930;47.412;8.790;2023-09-12T08:39:57;7.85;;;6.10;;
68888;SDS011;55930;47.412;8.790;2023-09-12T08:43:19;8.23;;;6.78;;
68888;SDS011;55930;47.412;8.790;2023-09-12T08:46:41;7.47;;;6.32;;
68888;SDS011;55930;47.412;8.790;2023-09-12T08:50:02;8.43;;;6.47;;
68888;SDS011;55930;47.412;8.790;2023-09-12T08:53:24;6.35;;;5.75;;
68888;SDS011;55930;47.412;8.790;2023-09-12T08:56:44;7.55;;;6.07;;
68888;SDS011;55930;47.412;8.790;2023-09-12T09:00:05;8.20;;;5.80;;
68888;SDS011;55930;47.412;8.790;2023-09-12T09:03:28;6.63;;;6.00;;
68888;SDS011;55930;47.412;8.790;2023-09-12T09:06:52;8.27;;;6.22;;
68888;SDS011;55930;47.412;8.790;2023-09-12T09:10:15;7.00;;;5.90;;
68888;SDS011;55930;47.412;8.790;2023-09-12T09:13:37;9.05;;;6.50;;
68888;SDS011;55930;47.412;8.790;2023-09-12T09:16:57;6.68;;;5.80;;
68888;SDS011;55930;47.412;8.790;2023-09-12T09:20:22;8.80;;;5.63;;
68888;SDS011;55930;47.412;8.790;2023-09-12T09:23:45;6.00;;;5.25;;
68888;SDS011;55930;47.412;8.790;2023-09-12T09:27:07;7.38;;;5.45;;
68888;SDS011;55930;47.412;8.790;2023-09-12T09:30:43;7.22;;;6.50;;
68888;SDS011;55930;47.412;8.790;2023-09-12T09:34:09;6.70;;;6.00;;
68888;SDS011;55930;47.412;8.790;2023-09-12T09:37:39;5.88;;;5.28;;
68888;SDS011;55930;47.412;8.790;2023-09-12T09:41:03;7.22;;;5.40;;
68888;SDS011;55930;47.412;8.790;2023-09-12T09:44:25;7.53;;;5.50;;
68888;SDS011;55930;47.412;8.790;2023-09-12T09:47:49;9.48;;;5.78;;
68888;SDS011;55930;47.412;8.790;2023-09-12T09:51:10;6.35;;;5.70;;
68888;SDS011;55930;47.412;8.790;2023-09-12T09:54:33;5.90;;;4.97;;
68888;SDS011;55930;47.412;8.790;2023-09-12T09:57:56;7.25;;;5.80;;
68888;SDS011;55930;47.412;8.790;2023-09-12T10:01:23;9.68;;;5.45;;
68888;SDS011;55930;47.412;8.790;2023-09-12T10:04:48;6.35;;;5.07;;
68888;SDS011;55930;47.412;8.790;2023-09-12T10:08:12;9.98;;;5.90;;
68888;SDS011;55930;47.412;8.790;2023-09-12T10:11:37;9.45;;;5.15;;
68888;SDS011;55930;47.412;8.790;2023-09-12T10:14:59;7.95;;;4.72;;
68888;SDS011;55930;47.412;8.790;2023-09-12T10:18:22;6.68;;;4.72;;
68888;SDS011;55930;47.412;8.790;2023-09-12T10:25:32;5.97;;;5.32;;
68888;SDS011;55930;47.412;8.790;2023-09-12T10:28:55;6.53;;;5.15;;
68888;SDS011;55930;47.412;8.790;2023-09-12T10:32:16;7.25;;;5.10;;
68888;SDS011;55930;47.412;8.790;2023-09-12T10:35:39;5.53;;;4.72;;
68888;SDS011;55930;47.412;8.790;2023-09-12T10:39:00;7.03;;;4.97;;
68888;SDS011;55930;47.412;8.790;2023-09-12T10:42:25;6.13;;;4.50;;
68888;SDS011;55930;47.412;8.790;2023-09-12T10:45:47;7.25;;;4.90;;
68888;SDS011;55930;47.412;8.790;2023-09-12T10:49:12;7.30;;;5.00;;
68888;SDS011;55930;47.412;8.790;2023-09-12T10:52:34;7.32;;;5.10;;
68888;SDS011;55930;47.412;8.790;2023-09-12T10:56:00;6.90;;;5.70;;
68888;SDS011;55930;47.412;8.790;2023-09-12T10:59:21;6.82;;;4.60;;
68888;SDS011;55930;47.412;8.790;2023-09-12T11:02:45;8.88;;;5.55;;
68888;SDS011;55930;47.412;8.790;2023-09-12T11:06:06;8.63;;;5.32;;
68888;SDS011;55930;47.412;8.790;2023-09-12T11:09:41;5.15;;;4.63;;
68888;SDS011;55930;47.412;8.790;2023-09-12T11:13:02;6.60;;;5.07;;
68888;SDS011;55930;47.412;8.790;2023-09-12T11:16:24;6.38;;;5.30;;
68888;SDS011;55930;47.412;8.790;2023-09-12T11:19:45;7.32;;;4.38;;
68888;SDS011;55930;47.412;8.790;2023-09-12T11:23:11;9.43;;;4.95;;
68888;SDS011;55930;47.412;8.790;2023-09-12T11:26:32;7.75;;;4.28;;
68888;SDS011;55930;47.412;8.790;2023-09-12T11:29:52;7.07;;;4.70;;
68888;SDS011;55930;47.412;8.790;2023-09-12T11:33:13;5.40;;;4.40;;
68888;SDS011;55930;47.412;8.790;2023-09-12T11:36:37;5.97;;;4.63;;
68888;SDS011;55930;47.412;8.790;2023-09-12T11:43:33;5.82;;;4.53;;
68888;SDS011;55930;47.412;8.790;2023-09-12T11:47:01;7.10;;;4.50;;
68888;SDS011;55930;47.412;8.790;2023-09-12T11:53:48;5.37;;;4.20;;
68888;SDS011;55930;47.412;8.790;2023-09-12T11:57:10;5.63;;;4.20;;
68888;SDS011;55930;47.412;8.790;2023-09-12T12:00:33;5.45;;;4.43;;
68888;SDS011;55930;47.412;8.790;2023-09-12T12:03:54;8.50;;;4.93;;
68888;SDS011;55930;47.412;8.790;2023-09-12T12:07:16;4.75;;;4.20;;
68888;SDS011;55930;47.412;8.790;2023-09-12T12:10:37;6.07;;;4.45;;
68888;SDS011;55930;47.412;8.790;2023-09-12T12:14:14;4.65;;;4.07;;
68888;SDS011;55930;47.412;8.790;2023-09-12T12:17:35;7.80;;;5.00;;
68888;SDS011;55930;47.412;8.790;2023-09-12T12:20:57;5.07;;;4.10;;
68888;SDS011;55930;47.412;8.790;2023-09-12T12:24:17;5.57;;;4.65;;
68888;SDS011;55930;47.412;8.790;2023-09-12T12:27:38;7.68;;;4.45;;
68888;SDS011;55930;47.412;8.790;2023-09-12T12:30:59;6.40;;;4.63;;
68888;SDS011;55930;47.412;8.790;2023-09-12T12:34:22;6.53;;;4.47;;
68888;SDS011;55930;47.412;8.790;2023-09-12T12:37:42;5.47;;;4.57;;
68888;SDS011;55930;47.412;8.790;2023-09-12T12:41:06;5.80;;;4.32;;
68888;SDS011;55930;47.412;8.790;2023-09-12T12:44:33;10.00;;;4.65;;
68888;SDS011;55930;47.412;8.790;2023-09-12T12:48:00;7.05;;;4.93;;
68888;SDS011;55930;47.412;8.790;2023-09-12T12:51:22;5.30;;;4.15;;
68888;SDS011;55930;47.412;8.790;2023-09-12T12:54:44;8.68;;;5.03;;
68888;SDS011;55930;47.412;8.790;2023-09-12T12:58:07;5.90;;;4.40;;
68888;SDS011;55930;47.412;8.790;2023-09-12T13:01:27;6.90;;;4.47;;
68888;SDS011;55930;47.412;8.790;2023-09-12T13:04:47;5.95;;;5.10;;
68888;SDS011;55930;47.412;8.790;2023-09-12T13:08:08;8.77;;;5.00;;
68888;SDS011;55930;47.412;8.790;2023-09-12T13:11:28;5.60;;;5.10;;
68888;SDS011;55930;47.412;8.790;2023-09-12T13:14:49;5.00;;;4.30;;
68888;SDS011;55930;47.412;8.790;2023-09-12T13:18:11;11.07;;;5.10;;
68888;SDS011;55930;47.412;8.790;2023-09-12T13:21:32;7.45;;;5.18;;
68888;SDS011;55930;47.412;8.790;2023-09-12T13:24:52;5.70;;;4.80;;
68888;SDS011;55930;47.412;8.790;2023-09-12T13:28:13;6.13;;;5.30;;
68888;SDS011;55930;47.412;8.790;2023-09-12T13:31:33;6.30;;;4.82;;
68888;SDS011;55930;47.412;8.790;2023-09-12T13:34:56;5.95;;;4.93;;
68888;SDS011;55930;47.412;8.790;2023-09-12T13:38:17;7.03;;;5.10;;
68888;SDS011;55930;47.412;8.790;2023-09-12T13:41:39;8.88;;;5.30;;
68888;SDS011;55930;47.412;8.790;2023-09-12T13:45:00;8.35;;;5.32;;
68888;SDS011;55930;47.412;8.790;2023-09-12T13:48:20;9.07;;;5.43;;
68888;SDS011;55930;47.412;8.790;2023-09-12T13:51:41;7.25;;;5.90;;
68888;SDS011;55930;47.412;8.790;2023-09-12T13:55:01;9.57;;;6.70;;
68888;SDS011;55930;47.412;8.790;2023-09-12T13:58:23;9.93;;;7.40;;
68888;SDS011;55930;47.412;8.790;2023-09-12T14:01:44;9.82;;;7.32;;
68888;SDS011;55930;47.412;8.790;2023-09-12T14:05:04;9.95;;;6.90;;
68888;SDS011;55930;47.412;8.790;2023-09-12T14:08:24;9.63;;;6.10;;
68888;SDS011;55930;47.412;8.790;2023-09-12T14:11:47;7.93;;;4.65;;
68888;SDS011;55930;47.412;8.790;2023-09-12T14:15:08;7.82;;;2.90;;
68888;SDS011;55930;47.412;8.790;2023-09-12T14:18:32;6.43;;;2.80;;
68888;SDS011;55930;47.412;8.790;2023-09-12T14:21:52;6.30;;;2.50;;
68888;SDS011;55930;47.412;8.790;2023-09-12T14:25:13;3.97;;;2.03;;
68888;SDS011;55930;47.412;8.790;2023-09-12T14:28:34;4.45;;;1.73;;
68888;SDS011;55930;47.412;8.790;2023-09-12T14:31:55;3.20;;;1.88;;
68888;SDS011;55930;47.412;8.790;2023-09-12T14:35:17;2.63;;;1.38;;
68888;SDS011;55930;47.412;8.790;2023-09-12T14:38:40;2.58;;;1.50;;
68888;SDS011;55930;47.412;8.790;2023-09-12T14:42:01;3.45;;;1.80;;
68888;SDS011;55930;47.412;8.790;2023-09-12T14:45:27;6.70;;;1.92;;
68888;SDS011;55930;47.412;8.790;2023-09-12T14:48:48;4.15;;;1.40;;
68888;SDS011;55930;47.412;8.790;2023-09-12T14:52:08;3.83;;;1.77;;
68888;SDS011;55930;47.412;8.790;2023-09-12T14:55:29;3.13;;;1.52;;
68888;SDS011;55930;47.412;8.790;2023-09-12T14:58:49;2.42;;;1.50;;
68888;SDS011;55930;47.412;8.790;2023-09-12T15:02:15;2.15;;;1.65;;
68888;SDS011;55930;47.412;8.790;2023-09-12T15:05:35;4.45;;;1.95;;
68888;SDS011;55930;47.412;8.790;2023-09-12T15:08:55;5.55;;;2.03;;
68888;SDS011;55930;47.412;8.790;2023-09-12T15:12:16;3.88;;;1.90;;
68888;SDS011;55930;47.412;8.790;2023-09-12T15:15:39;3.38;;;1.42;;
68888;SDS011;55930;47.412;8.790;2023-09-12T15:18:59;3.72;;;1.80;;
68888;SDS011;55930;47.412;8.790;2023-09-12T15:22:21;6.93;;;1.83;;
68888;SDS011;55930;47.412;8.790;2023-09-12T15:25:44;5.30;;;1.75;;
68888;SDS011;55930;47.412;8.790;2023-09-12T15:29:04;3.40;;;1.30;;
68888;SDS011;55930;47.412;8.790;2023-09-12T15:32:25;4.18;;;1.48;;
68888;SDS011;55930;47.412;8.790;2023-09-12T15:35:45;2.95;;;1.48;;
68888;SDS011;55930;47.412;8.790;2023-09-12T15:39:05;3.85;;;1.50;;
68888;SDS011;55930;47.412;8.790;2023-09-12T15:42:26;10.15;;;1.70;;
68888;SDS011;55930;47.412;8.790;2023-09-12T15:45:46;4.82;;;1.98;;
68888;SDS011;55930;47.412;8.790;2023-09-12T15:49:09;5.13;;;1.30;;
68888;SDS011;55930;47.412;8.790;2023-09-12T15:52:29;4.40;;;1.33;;
68888;SDS011;55930;47.412;8.790;2023-09-12T15:55:49;3.47;;;1.20;;
68888;SDS011;55930;47.412;8.790;2023-09-12T15:59:10;4.68;;;1.60;;
68888;SDS011;55930;47.412;8.790;2023-09-12T16:02:30;4.53;;;1.83;;
68888;SDS011;55930;47.412;8.790;2023-09-12T16:05:53;3.55;;;1.30;;
68888;SDS011;55930;47.412;8.790;2023-09-12T16:09:14;2.17;;;1.58;;
68888;SDS011;55930;47.412;8.790;2023-09-12T16:12:34;4.30;;;1.40;;
68888;SDS011;55930;47.412;8.790;2023-09-12T16:15:54;1.92;;;1.10;;
68888;SDS011;55930;47.412;8.790;2023-09-12T16:19:15;2.53;;;1.50;;
68888;SDS011;55930;47.412;8.790;2023-09-12T16:22:37;4.65;;;1.75;;
68888;SDS011;55930;47.412;8.790;2023-09-12T16:25:58;3.10;;;1.50;;
68888;SDS011;55930;47.412;8.790;2023-09-12T16:29:20;5.28;;;3.22;;
68888;SDS011;55930;47.412;8.790;2023-09-12T16:32:40;2.78;;;1.70;;
68888;SDS011;55930;47.412;8.790;2023-09-12T16:36:01;4.75;;;1.95;;
68888;SDS011;55930;47.412;8.790;2023-09-12T16:39:21;4.50;;;1.83;;
68888;SDS011;55930;47.412;8.790;2023-09-12T16:42:44;5.97;;;1.63;;
68888;SDS011;55930;47.412;8.790;2023-09-12T16:46:04;3.53;;;1.80;;
68888;SDS011;55930;47.412;8.790;2023-09-12T16:49:25;3.20;;;1.88;;
68888;SDS011;55930;47.412;8.790;2023-09-12T16:52:45;2.58;;;1.80;;
68888;SDS011;55930;47.412;8.790;2023-09-12T16:56:06;5.32;;;2.47;;
68888;SDS011;55930;47.412;8.790;2023-09-12T16:59:26;4.93;;;1.95;;
68888;SDS011;55930;47.412;8.790;2023-09-12T17:02:46;4.85;;;2.15;;
68888;SDS011;55930;47.412;8.790;2023-09-12T17:06:07;10.68;;;2.00;;
68888;SDS011;55930;47.412;8.790;2023-09-12T17:09:27;7.00;;;2.25;;
68888;SDS011;55930;47.412;8.790;2023-09-12T17:12:50;9.20;;;2.55;;
68888;SDS011;55930;47.412;8.790;2023-09-12T17:16:10;7.75;;;2.08;;
68888;SDS011;55930;47.412;8.790;2023-09-12T17:19:31;11.77;;;3.25;;
68888;SDS011;55930;47.412;8.790;2023-09-12T17:22:51;9.02;;;2.70;;
68888;SDS011;55930;47.412;8.790;2023-09-12T17:26:12;4.53;;;2.25;;
68888;SDS011;55930;47.412;8.790;2023-09-12T17:29:32;8.00;;;2.60;;
68888;SDS011;55930;47.412;8.790;2023-09-12T17:32:52;8.07;;;2.03;;
68888;SDS011;55930;47.412;8.790;2023-09-12T17:36:13;3.92;;;2.22;;
68888;SDS011;55930;47.412;8.790;2023-09-12T17:39:33;4.05;;;2.35;;
68888;SDS011;55930;47.412;8.790;2023-09-12T17:42:54;4.90;;;2.25;;
68888;SDS011;55930;47.412;8.790;2023-09-12T17:46:14;5.47;;;2.55;;
68888;SDS011;55930;47.412;8.790;2023-09-12T17:49:34;5.20;;;2.08;;
68888;SDS011;55930;47.412;8.790;2023-09-12T17:52:55;3.22;;;2.08;;
68888;SDS011;55930;47.412;8.790;2023-09-12T17:56:18;4.80;;;2.80;;
68888;SDS011;55930;47.412;8.790;2023-09-12T17:59:39;2.88;;;2.25;;
68888;SDS011;55930;47.412;8.790;2023-09-12T18:03:01;5.18;;;2.15;;
68888;SDS011;55930;47.412;8.790;2023-09-12T18:06:21;2.72;;;2.00;;
68888;SDS011;55930;47.412;8.790;2023-09-12T18:09:41;3.72;;;2.00;;
68888;SDS011;55930;47.412;8.790;2023-09-12T18:13:02;4.85;;;2.35;;
68888;SDS011;55930;47.412;8.790;2023-09-12T18:16:22;3.33;;;2.15;;
68888;SDS011;55930;47.412;8.790;2023-09-12T18:19:45;7.57;;;2.55;;
68888;SDS011;55930;47.412;8.790;2023-09-12T18:23:05;3.08;;;1.80;;
68888;SDS011;55930;47.412;8.790;2023-09-12T18:26:26;4.82;;;2.20;;
68888;SDS011;55930;47.412;8.790;2023-09-12T18:29:46;4.18;;;2.08;;
68888;SDS011;55930;47.412;8.790;2023-09-12T18:33:07;3.03;;;1.88;;
68888;SDS011;55930;47.412;8.790;2023-09-12T18:36:27;3.38;;;2.15;;
68888;SDS011;55930;47.412;8.790;2023-09-12T18:39:47;5.85;;;2.15;;
68888;SDS011;55930;47.412;8.790;2023-09-12T18:43:08;4.50;;;2.08;;
68888;SDS011;55930;47.412;8.790;2023-09-12T18:46:28;9.55;;;2.70;;
68888;SDS011;55930;47.412;8.790;2023-09-12T18:49:49;7.85;;;3.30;;
68888;SDS011;55930;47.412;8.790;2023-09-12T18:53:09;3.78;;;2.28;;
68888;SDS011;55930;47.412;8.790;2023-09-12T18:56:34;3.75;;;2.58;;
68888;SDS011;55930;47.412;8.790;2023-09-12T18:59:55;3.45;;;2.40;;
68888;SDS011;55930;47.412;8.790;2023-09-12T19:03:17;4.32;;;2.97;;
68888;SDS011;55930;47.412;8.790;2023-09-12T19:06:38;4.78;;;2.83;;
68888;SDS011;55930;47.412;8.790;2023-09-12T19:09:58;4.05;;;2.75;;
68888;SDS011;55930;47.412;8.790;2023-09-12T19:13:19;6.28;;;2.97;;
68888;SDS011;55930;47.412;8.790;2023-09-12T19:16:39;4.72;;;2.53;;
68888;SDS011;55930;47.412;8.790;2023-09-12T19:20:01;5.93;;;2.50;;
68888;SDS011;55930;47.412;8.790;2023-09-12T19:23:23;3.20;;;2.53;;
68888;SDS011;55930;47.412;8.790;2023-09-12T19:26:44;3.95;;;2.15;;
68888;SDS011;55930;47.412;8.790;2023-09-12T19:30:04;4.00;;;2.05;;
68888;SDS011;55930;47.412;8.790;2023-09-12T19:33:31;2.60;;;1.55;;
68888;SDS011;55930;47.412;8.790;2023-09-12T19:36:51;3.15;;;1.55;;
68888;SDS011;55930;47.412;8.790;2023-09-12T19:40:12;4.22;;;2.17;;
68888;SDS011;55930;47.412;8.790;2023-09-12T19:43:34;3.80;;;2.30;;
68888;SDS011;55930;47.412;8.790;2023-09-12T19:46:54;3.15;;;2.10;;
68888;SDS011;55930;47.412;8.790;2023-09-12T19:50:15;7.47;;;1.70;;
68888;SDS011;55930;47.412;8.790;2023-09-12T19:53:36;6.82;;;2.03;;
68888;SDS011;55930;47.412;8.790;2023-09-12T19:56:57;7.63;;;3.17;;
68888;SDS011;55930;47.412;8.790;2023-09-12T20:00:17;5.40;;;1.77;;
68888;SDS011;55930;47.412;8.790;2023-09-12T20:03:38;4.93;;;2.10;;
68888;SDS011;55930;47.412;8.790;2023-09-12T20:06:58;3.58;;;1.80;;
68888;SDS011;55930;47.412;8.790;2023-09-12T20:10:18;4.20;;;1.80;;
68888;SDS011;55930;47.412;8.790;2023-09-12T20:13:40;2.13;;;1.50;;
68888;SDS011;55930;47.412;8.790;2023-09-12T20:17:01;3.08;;;1.73;;
68888;SDS011;55930;47.412;8.790;2023-09-12T20:20:21;3.45;;;2.03;;
68888;SDS011;55930;47.412;8.790;2023-09-12T20:23:44;4.32;;;2.38;;
68888;SDS011;55930;47.412;8.790;2023-09-12T20:27:04;5.78;;;2.10;;
68888;SDS011;55930;47.412;8.790;2023-09-12T20:30:26;5.53;;;2.58;;
68888;SDS011;55930;47.412;8.790;2023-09-12T20:33:47;5.30;;;2.67;;
68888;SDS011;55930;47.412;8.790;2023-09-12T20:37:08;4.63;;;2.55;;
68888;SDS011;55930;47.412;8.790;2023-09-12T20:40:28;3.90;;;2.70;;
68888;SDS011;55930;47.412;8.790;2023-09-12T20:43:49;3.58;;;2.53;;
68888;SDS011;55930;47.412;8.790;2023-09-12T20:47:11;3.80;;;2.70;;
68888;SDS011;55930;47.412;8.790;2023-09-12T20:50:32;5.13;;;2.90;;
68888;SDS011;55930;47.412;8.790;2023-09-12T20:53:52;4.20;;;3.00;;
68888;SDS011;55930;47.412;8.790;2023-09-12T20:57:15;3.95;;;2.75;;
68888;SDS011;55930;47.412;8.790;2023-09-12T21:00:36;5.45;;;2.97;;
68888;SDS011;55930;47.412;8.790;2023-09-12T21:03:56;4.20;;;3.00;;
68888;SDS011;55930;47.412;8.790;2023-09-12T21:07:17;7.65;;;2.85;;
68888;SDS011;55930;47.412;8.790;2023-09-12T21:10:37;5.57;;;2.90;;
68888;SDS011;55930;47.412;8.790;2023-09-12T21:13:57;3.72;;;2.75;;
68888;SDS011;55930;47.412;8.790;2023-09-12T21:17:20;6.95;;;3.03;;
68888;SDS011;55930;47.412;8.790;2023-09-12T21:20:46;4.85;;;2.83;;
68888;SDS011;55930;47.412;8.790;2023-09-12T21:24:08;3.67;;;2.80;;
68888;SDS011;55930;47.412;8.790;2023-09-12T21:27:28;4.70;;;2.85;;
68888;SDS011;55930;47.412;8.790;2023-09-12T21:30:49;5.18;;;2.53;;
68888;SDS011;55930;47.412;8.790;2023-09-12T21:34:12;6.40;;;2.78;;
68888;SDS011;55930;47.412;8.790;2023-09-12T21:37:32;3.60;;;2.60;;
68888;SDS011;55930;47.412;8.790;2023-09-12T21:40:53;5.38;;;2.50;;
68888;SDS011;55930;47.412;8.790;2023-09-12T21:44:18;5.57;;;2.80;;
68888;SDS011;55930;47.412;8.790;2023-09-12T21:47:38;4.45;;;2.47;;
68888;SDS011;55930;47.412;8.790;2023-09-12T21:51:01;6.35;;;2.70;;
68888;SDS011;55930;47.412;8.790;2023-09-12T21:54:22;3.90;;;2.47;;
68888;SDS011;55930;47.412;8.790;2023-09-12T21:57:43;4.95;;;2.78;;
68888;SDS011;55930;47.412;8.790;2023-09-12T22:01:04;6.60;;;2.70;;
68888;SDS011;55930;47.412;8.790;2023-09-12T22:04:26;9.38;;;2.65;;
68888;SDS011;55930;47.412;8.790;2023-09-12T22:07:46;4.40;;;2.58;;
68888;SDS011;55930;47.412;8.790;2023-09-12T22:11:13;4.22;;;2.90;;
68888;SDS011;55930;47.412;8.790;2023-09-12T22:14:34;8.93;;;3.03;;
68888;SDS011;55930;47.412;8.790;2023-09-12T22:17:54;2.75;;;2.15;;
68888;SDS011;55930;47.412;8.790;2023-09-12T22:21:15;4.70;;;2.65;;
68888;SDS011;55930;47.412;8.790;2023-09-12T22:24:35;4.72;;;2.80;;
68888;SDS011;55930;47.412;8.790;2023-09-12T22:27:55;4.93;;;3.35;;
68888;SDS011;55930;47.412;8.790;2023-09-12T22:31:16;3.33;;;2.42;;
68888;SDS011;55930;47.412;8.790;2023-09-12T22:34:36;5.38;;;3.17;;
68888;SDS011;55930;47.412;8.790;2023-09-12T22:37:59;4.90;;;2.83;;
68888;SDS011;55930;47.412;8.790;2023-09-12T22:41:19;3.97;;;2.90;;